createdAt,value
2023-02-11T00:00:34.616Z,31.95
2023-02-11T00:03:38.875Z,24.17
2023-02-11T00:06:42.419Z,32.53
2023-02-11T00:09:46.643Z,26.65
2023-02-11T00:12:49.921Z,33.22
2023-02-11T00:15:54.711Z,29.73
2023-02-11T00:18:58.666Z,21.60
2023-02-11T00:22:01.970Z,30.15
2023-02-11T00:25:05.265Z,25.45
2023-02-11T00:28:08.779Z,36.20
2023-02-11T00:31:14.095Z,35.70
2023-02-11T00:34:17.460Z,29.52
2023-02-11T00:37:20.787Z,24.38
2023-02-11T00:40:25.233Z,32.55
2023-02-11T00:43:29.337Z,30.33
2023-02-11T00:46:35.885Z,26.58
2023-02-11T00:49:40.628Z,40.45
2023-02-11T00:52:46.083Z,31.23
2023-02-11T00:55:49.811Z,31.42
2023-02-11T00:58:53.866Z,20.75
2023-02-11T01:01:58.624Z,33.13
2023-02-11T01:05:02.488Z,35.08
2023-02-11T01:08:06.926Z,33.75
2023-02-11T01:11:13.901Z,27.10
2023-02-11T01:14:17.313Z,29.75
2023-02-11T01:17:21.974Z,26.90
2023-02-11T01:20:28.086Z,22.70
2023-02-11T01:23:31.564Z,31.80
2023-02-11T01:26:34.962Z,33.42
2023-02-11T01:29:38.772Z,26.15
2023-02-11T01:32:43.535Z,31.58
2023-02-11T01:35:47.485Z,33.65
2023-02-11T01:38:50.846Z,37.15
2023-02-11T01:41:56.875Z,27.08
2023-02-11T01:45:00.201Z,35.38
2023-02-11T01:48:04.933Z,28.58
2023-02-11T01:51:10.049Z,36.05
2023-02-11T01:54:33.856Z,29.13
2023-02-11T01:57:40.406Z,25.35
2023-02-11T02:00:47.225Z,23.00
2023-02-11T02:03:54.265Z,34.35
2023-02-11T02:07:01.917Z,29.85
2023-02-11T02:10:07.546Z,32.67
2023-02-11T02:13:13.094Z,24.73
2023-02-11T02:16:18.190Z,29.70
2023-02-11T02:19:33.079Z,24.33
2023-02-11T02:22:46.920Z,29.40
2023-02-11T02:26:01.525Z,26.50
2023-02-11T02:29:21.399Z,31.27
2023-02-11T02:32:31.608Z,25.65
2023-02-11T02:35:38.333Z,32.40
2023-02-11T02:38:45.791Z,25.02
2023-02-11T02:41:53.691Z,28.20
2023-02-11T02:44:57.671Z,25.10
2023-02-11T02:48:02.389Z,31.00
2023-02-11T02:51:13.333Z,29.98
2023-02-11T02:54:31.902Z,23.33
2023-02-11T02:57:45.415Z,21.48
2023-02-11T03:00:55.324Z,27.38
2023-02-11T03:04:15.080Z,27.70
2023-02-11T03:07:23.258Z,25.92
2023-02-11T03:10:34.318Z,25.88
2023-02-11T03:13:39.884Z,24.60
2023-02-11T03:16:45.452Z,28.70
2023-02-11T03:19:59.545Z,23.23
2023-02-11T03:23:10.851Z,17.73
2023-02-11T03:26:21.269Z,22.13
2023-02-11T03:29:30.176Z,21.02
2023-02-11T03:32:54.088Z,16.48
2023-02-11T03:36:02.032Z,20.63
2023-02-11T03:39:11.761Z,24.23
2023-02-11T03:42:26.162Z,17.10
2023-02-11T03:45:38.319Z,19.13
2023-02-11T03:48:46.178Z,23.23
2023-02-11T03:51:55.426Z,19.38
2023-02-11T03:55:00.046Z,26.23
2023-02-11T03:58:04.411Z,17.42
2023-02-11T04:01:09.746Z,17.00
2023-02-11T04:04:18.622Z,21.38
2023-02-11T04:07:27.518Z,26.75
2023-02-11T04:10:33.629Z,23.67
2023-02-11T04:13:44.858Z,19.42
2023-02-11T04:16:48.404Z,20.88
2023-02-11T04:19:51.963Z,24.20
2023-02-11T04:22:57.077Z,22.73
2023-02-11T04:26:00.989Z,28.52
2023-02-11T04:29:04.372Z,18.55
2023-02-11T04:32:07.775Z,25.55
2023-02-11T04:35:14.240Z,19.10
2023-02-11T04:38:18.856Z,21.98
2023-02-11T04:41:22.187Z,17.73
2023-02-11T04:44:25.532Z,19.20
2023-02-11T04:47:28.865Z,18.90
2023-02-11T04:50:32.217Z,27.15
2023-02-11T04:53:37.086Z,22.67
2023-02-11T04:56:40.530Z,23.48
2023-02-11T04:59:45.149Z,16.30
2023-02-11T05:02:49.395Z,18.60
2023-02-11T05:05:52.954Z,24.35
2023-02-11T05:08:57.701Z,19.88
2023-02-11T05:12:01.015Z,20.15
2023-02-11T05:15:04.388Z,25.77
2023-02-11T05:18:07.794Z,12.93
2023-02-11T05:21:12.153Z,22.30
2023-02-11T05:24:16.753Z,17.83
2023-02-11T05:27:20.085Z,26.55
2023-02-11T05:30:23.501Z,25.85
2023-02-11T05:33:26.920Z,19.75
2023-02-11T05:36:33.623Z,18.75
2023-02-11T05:39:38.308Z,21.58
2023-02-11T05:42:42.449Z,17.05
2023-02-11T05:45:45.658Z,21.63
2023-02-11T05:48:48.973Z,19.58
2023-02-11T05:51:52.244Z,21.10
2023-02-11T05:54:56.856Z,22.65
2023-02-11T05:58:00.196Z,21.50
2023-02-11T06:01:03.570Z,19.35
2023-02-11T06:04:07.065Z,19.48
2023-02-11T06:07:10.376Z,20.10
2023-02-11T06:10:15.036Z,15.15
2023-02-11T06:13:19.603Z,16.63
2023-02-11T06:16:22.958Z,17.42
2023-02-11T06:19:26.319Z,15.63
2023-02-11T06:22:29.660Z,16.35
2023-02-11T06:25:34.254Z,14.55
2023-02-11T06:28:40.718Z,20.20
2023-02-11T06:31:45.248Z,12.60
2023-02-11T06:34:48.903Z,12.30
2023-02-11T06:37:53.760Z,14.60
2023-02-11T06:40:58.376Z,9.65
2023-02-11T06:44:01.655Z,14.30
2023-02-11T06:47:04.948Z,11.52
2023-02-11T06:50:08.874Z,14.63
2023-02-11T06:53:12.130Z,14.75
2023-02-11T06:56:17.715Z,12.90
2023-02-11T06:59:21.452Z,9.55
2023-02-11T07:02:24.978Z,16.17
2023-02-11T07:05:28.291Z,12.88
2023-02-11T07:08:31.588Z,14.77
2023-02-11T07:11:36.289Z,17.83
2023-02-11T07:14:40.541Z,12.93
2023-02-11T07:17:43.839Z,15.10
2023-02-11T07:20:47.128Z,14.55
2023-02-11T07:23:52.225Z,13.73
2023-02-11T07:26:56.838Z,13.02
2023-02-11T07:30:01.074Z,14.75
2023-02-11T07:33:04.464Z,13.93
2023-02-11T07:36:08.730Z,12.25
2023-02-11T07:39:12.367Z,12.93
2023-02-11T07:42:17.405Z,9.50
2023-02-11T07:45:21.085Z,12.35
2023-02-11T07:48:24.283Z,10.27
2023-02-11T07:51:35.771Z,6.78
2023-02-11T07:54:46.069Z,8.82
2023-02-11T07:57:50.729Z,7.57
2023-02-11T08:00:54.010Z,11.80
2023-02-11T08:03:57.972Z,7.55
2023-02-11T08:07:01.329Z,8.55
2023-02-11T08:10:05.831Z,9.30
2023-02-11T08:13:10.572Z,13.23
2023-02-11T08:16:19.585Z,7.93
2023-02-11T08:19:22.894Z,15.82
2023-02-11T08:22:26.139Z,14.65
2023-02-11T08:25:29.701Z,9.50
2023-02-11T08:28:36.725Z,8.98
2023-02-11T08:31:41.211Z,11.35
2023-02-11T08:34:45.192Z,8.98
2023-02-11T08:37:48.635Z,12.00
2023-02-11T08:40:52.180Z,10.68
2023-02-11T08:43:57.471Z,8.93
2023-02-11T08:47:00.764Z,8.07
2023-02-11T08:50:04.171Z,12.15
2023-02-11T08:53:08.696Z,10.07
2023-02-11T08:56:13.560Z,8.73
2023-02-11T08:59:18.428Z,11.98
2023-02-11T09:02:21.797Z,10.23
2023-02-11T09:05:25.434Z,10.95
2023-02-11T09:08:28.896Z,12.00
2023-02-11T09:11:34.288Z,11.27
2023-02-11T09:14:39.269Z,12.65
2023-02-11T09:17:42.555Z,10.23
2023-02-11T09:20:49.388Z,9.45
2023-02-11T09:23:53.345Z,14.00
2023-02-11T09:27:06.760Z,11.27
2023-02-11T09:30:49.662Z,8.00
2023-02-11T09:33:54.985Z,8.90
2023-02-11T09:36:58.293Z,6.43
2023-02-11T09:40:01.666Z,9.63
2023-02-11T09:43:06.786Z,9.13
2023-02-11T09:46:14.804Z,12.82
2023-02-11T09:49:21.226Z,14.80
2023-02-11T09:52:29.143Z,9.60
2023-02-11T09:55:34.102Z,10.63
2023-02-11T09:58:37.928Z,9.82
2023-02-11T10:01:46.654Z,11.18
2023-02-11T10:05:17.637Z,10.90
2023-02-11T10:08:25.441Z,6.55
2023-02-11T10:11:32.608Z,7.72
2023-02-11T10:14:50.939Z,10.00
2023-02-11T10:18:07.135Z,14.10
2023-02-11T10:28:59.519Z,7.93
2023-02-11T10:32:09.388Z,8.00
2023-02-11T10:35:18.636Z,10.32
2023-02-11T10:38:42.088Z,7.35
2023-02-11T10:41:53.403Z,14.70
2023-02-11T10:45:01.692Z,6.50
2023-02-11T10:48:16.507Z,13.05
2023-02-11T10:55:55.329Z,6.35
2023-02-11T10:59:39.436Z,13.07
2023-02-11T11:02:57.312Z,9.48
2023-02-11T11:06:08.540Z,12.30
2023-02-11T11:09:28.701Z,7.60
2023-02-11T11:13:03.931Z,11.98
2023-02-11T11:17:00.349Z,8.32
2023-02-11T11:21:10.252Z,8.57
2023-02-11T11:33:03.071Z,9.60
2023-02-11T11:48:23.821Z,4.72
2023-02-11T11:51:27.658Z,7.20
2023-02-11T11:54:32.846Z,10.60
2023-02-11T12:02:22.954Z,7.28
2023-02-11T12:09:45.912Z,89.68
2023-02-11T12:13:06.013Z,7.00
2023-02-11T12:16:14.452Z,6.82
2023-02-11T12:19:37.754Z,5.68
2023-02-11T12:22:48.815Z,4.90
2023-02-11T12:25:58.517Z,4.55
2023-02-11T12:29:06.921Z,3.85
2023-02-11T12:32:19.615Z,6.85
2023-02-11T12:35:30.080Z,20.23
2023-02-11T12:38:47.338Z,30.85
2023-02-11T12:42:25.436Z,3.85
2023-02-11T12:46:18.490Z,4.93
2023-02-11T12:49:35.110Z,7.25
2023-02-11T12:52:48.109Z,2.53
2023-02-11T12:56:21.319Z,18.63
2023-02-11T12:59:43.065Z,4.18
2023-02-11T13:02:50.978Z,5.47
2023-02-11T13:06:03.124Z,10.85
2023-02-11T13:09:08.034Z,5.32
2023-02-11T13:12:32.057Z,5.55
2023-02-11T13:15:36.916Z,2.25
2023-02-11T13:22:12.889Z,2.67
2023-02-11T13:25:21.557Z,1.40
2023-02-11T13:28:48.340Z,1.98
2023-02-11T13:31:57.058Z,4.85
2023-02-11T13:35:00.721Z,14.95
2023-02-11T13:38:08.182Z,3.83
2023-02-11T13:41:19.081Z,20.67
2023-02-11T13:44:25.126Z,4.45
2023-02-11T13:47:31.622Z,4.20
2023-02-11T13:50:38.889Z,10.52
2023-02-11T13:53:47.103Z,2.78
2023-02-11T13:57:06.240Z,7.32
2023-02-11T14:00:24.397Z,2.78
2023-02-11T14:03:53.696Z,4.45
2023-02-11T14:07:35.761Z,5.53
2023-02-11T14:10:56.430Z,5.25
2023-02-11T14:14:16.820Z,2.15
2023-02-11T14:17:30.770Z,5.13
2023-02-11T14:20:37.577Z,12.10
2023-02-11T14:23:41.180Z,2.72
2023-02-11T14:26:48.559Z,9.07
2023-02-11T14:29:55.565Z,9.23
2023-02-11T14:33:06.519Z,12.38
2023-02-11T14:36:33.096Z,9.80
2023-02-11T14:39:43.530Z,7.63
2023-02-11T14:42:49.546Z,3.67
2023-02-11T14:45:55.270Z,6.40
2023-02-11T14:48:59.911Z,6.15
2023-02-11T14:52:07.612Z,6.18
2023-02-11T14:55:18.706Z,4.28
2023-02-11T14:58:23.091Z,4.45
2023-02-11T15:01:31.313Z,8.25
2023-02-11T15:04:36.269Z,4.63
2023-02-11T15:07:44.301Z,7.20
2023-02-11T15:10:47.534Z,13.43
2023-02-11T15:14:49.864Z,1.48
2023-02-11T15:17:55.161Z,3.60
2023-02-11T15:20:58.510Z,2.40
2023-02-11T15:24:07.189Z,4.90
2023-02-11T15:27:15.360Z,3.53
2023-02-11T15:30:29.652Z,6.70
2023-02-11T15:33:38.201Z,1.80
2023-02-11T15:36:49.353Z,7.13
2023-02-11T15:39:54.353Z,11.63
2023-02-11T15:42:59.087Z,2.25
2023-02-11T15:46:03.312Z,7.78
2023-02-11T15:49:09.004Z,5.43
2023-02-11T15:52:44.110Z,10.35
2023-02-11T15:55:49.415Z,12.48
2023-02-11T15:58:54.429Z,8.23
2023-02-11T16:01:59.801Z,6.70
2023-02-11T16:05:04.901Z,8.95
2023-02-11T16:08:15.411Z,4.38
2023-02-11T16:11:26.582Z,4.05
2023-02-11T16:14:31.141Z,3.00
2023-02-11T16:17:34.571Z,8.65
2023-02-11T16:20:38.362Z,5.97
2023-02-11T16:23:43.148Z,8.60
2023-02-11T16:26:50.527Z,7.75
2023-02-11T16:29:54.090Z,6.30
2023-02-11T16:32:57.590Z,7.90
2023-02-11T16:36:02.232Z,5.80
2023-02-11T16:39:05.674Z,6.50
2023-02-11T16:42:11.709Z,7.72
2023-02-11T16:45:15.390Z,5.75
2023-02-11T16:48:20.070Z,17.10
2023-02-11T16:51:23.639Z,11.18
2023-02-11T16:54:27.064Z,4.57
2023-02-11T16:57:32.839Z,8.60
2023-02-11T17:00:36.317Z,6.82
2023-02-11T17:03:41.072Z,9.02
2023-02-11T17:06:44.634Z,8.38
2023-02-11T17:09:48.497Z,6.65
2023-02-11T17:12:54.060Z,6.32
2023-02-11T17:15:57.638Z,8.90
2023-02-11T17:19:01.064Z,5.03
2023-02-11T17:22:05.329Z,8.20
2023-02-11T17:25:09.261Z,3.65
2023-02-11T17:28:14.271Z,8.25
2023-02-11T17:31:29.704Z,7.35
2023-02-11T17:47:05.209Z,11.95
2023-02-11T17:50:40.647Z,4.20
2023-02-11T17:54:17.379Z,6.97
2023-02-11T17:57:21.005Z,6.20
2023-02-11T18:00:25.785Z,7.15
2023-02-11T18:03:29.082Z,8.45
2023-02-11T18:06:33.726Z,4.93
2023-02-11T18:09:42.032Z,8.57
2023-02-11T18:12:45.468Z,8.32
2023-02-11T18:15:52.620Z,12.13
2023-02-11T18:18:56.024Z,5.55
2023-02-11T18:22:01.076Z,10.00
2023-02-11T18:25:04.646Z,6.75
2023-02-11T18:28:11.097Z,7.15
2023-02-11T18:31:16.418Z,10.40
2023-02-11T18:34:19.743Z,7.50
2023-02-11T18:37:22.949Z,6.43
2023-02-11T18:40:26.135Z,11.23
2023-02-11T18:43:42.892Z,9.85
2023-02-11T18:46:47.477Z,11.35
2023-02-11T18:49:51.001Z,9.32
2023-02-11T18:52:54.310Z,7.05
2023-02-11T18:55:57.597Z,8.65
2023-02-11T18:59:02.356Z,11.57
2023-02-11T19:02:10.883Z,7.60
2023-02-11T19:05:14.121Z,10.20
2023-02-11T19:08:20.567Z,11.23
2023-02-11T19:11:44.592Z,7.32
2023-02-11T19:14:47.935Z,7.57
2023-02-11T19:17:52.527Z,11.02
2023-02-11T19:20:55.885Z,8.02
2023-02-11T19:23:59.972Z,9.50
2023-02-11T19:27:04.320Z,8.05
2023-02-11T19:30:08.253Z,10.50
2023-02-11T19:33:12.946Z,20.35
2023-02-11T19:36:18.425Z,15.55
2023-02-11T19:39:23.794Z,11.57
2023-02-11T19:42:27.725Z,12.63
2023-02-11T19:45:31.132Z,11.48
2023-02-11T19:48:36.033Z,11.15
2023-02-11T19:51:39.694Z,12.25
2023-02-11T19:54:45.716Z,13.00
2023-02-11T19:57:49.050Z,9.38
2023-02-11T20:00:52.434Z,10.57
2023-02-11T20:03:57.750Z,13.07
2023-02-11T20:07:01.055Z,10.63
2023-02-11T20:10:04.470Z,9.07
2023-02-11T20:13:07.865Z,8.90
2023-02-11T20:16:13.936Z,9.02
2023-02-11T20:19:19.474Z,10.52
2023-02-11T20:22:22.795Z,8.70
2023-02-11T20:25:26.768Z,8.65
2023-02-11T20:28:30.044Z,7.20
2023-02-11T20:31:34.080Z,11.77
2023-02-11T20:34:39.002Z,10.77
2023-02-11T20:37:44.108Z,7.22
2023-02-11T20:40:47.642Z,5.85
2023-02-11T20:43:53.031Z,9.73
2023-02-11T20:46:56.425Z,4.55
2023-02-11T20:50:01.043Z,6.25
2023-02-11T20:53:04.554Z,9.05
2023-02-11T20:56:09.185Z,12.13
2023-02-11T20:59:14.698Z,5.85
2023-02-11T21:02:17.998Z,8.38
2023-02-11T21:05:22.824Z,6.20
2023-02-11T21:08:26.161Z,9.25
2023-02-11T21:11:31.004Z,8.55
2023-02-11T21:14:34.613Z,8.90
2023-02-11T21:17:37.938Z,7.85
2023-02-11T21:20:44.784Z,7.72
2023-02-11T21:23:48.100Z,9.75
2023-02-11T21:26:51.374Z,10.73
2023-02-11T21:29:54.921Z,6.88
2023-02-11T21:32:59.493Z,10.57
2023-02-11T21:36:07.668Z,10.95
2023-02-11T21:39:13.560Z,9.23
2023-02-11T21:42:45.739Z,11.00
2023-02-11T21:45:50.756Z,9.10
2023-02-11T21:48:54.251Z,8.68
2023-02-11T21:51:58.836Z,11.27
2023-02-11T21:55:02.116Z,13.10
2023-02-11T21:58:06.057Z,7.22
2023-02-11T22:01:13.090Z,13.82
2023-02-11T22:04:16.931Z,12.43
2023-02-11T22:07:22.619Z,8.63
2023-02-11T22:10:25.931Z,16.08
2023-02-11T22:13:29.395Z,11.95
2023-02-11T22:16:32.866Z,20.20
2023-02-11T22:19:36.412Z,14.50
2023-02-11T22:22:41.069Z,13.32
2023-02-11T22:25:44.312Z,16.48
2023-02-11T22:28:47.755Z,12.52
2023-02-11T22:31:51.058Z,9.55
2023-02-11T22:34:54.290Z,11.15
2023-02-11T22:37:58.926Z,11.45
2023-02-11T22:41:06.496Z,14.15
2023-02-11T22:44:10.150Z,16.00
2023-02-11T22:47:13.418Z,13.95
2023-02-11T22:50:16.718Z,19.83
2023-02-11T22:53:21.463Z,14.75
2023-02-11T22:56:25.319Z,18.95
2023-02-11T22:59:28.553Z,10.93
2023-02-11T23:02:32.940Z,13.52
2023-02-11T23:05:39.695Z,16.00
2023-02-11T23:08:44.712Z,11.40
2023-02-11T23:11:49.745Z,13.95
2023-02-11T23:14:53.036Z,14.27
2023-02-11T23:17:56.599Z,11.52
2023-02-11T23:21:03.851Z,15.50
2023-02-11T23:24:09.527Z,12.02
2023-02-11T23:27:13.488Z,12.32
2023-02-11T23:30:16.925Z,11.70
2023-02-11T23:33:22.254Z,16.63
2023-02-11T23:36:25.616Z,14.75
2023-02-11T23:39:30.290Z,16.55
2023-02-11T23:42:33.544Z,12.77
2023-02-11T23:45:36.827Z,14.88
2023-02-11T23:48:40.460Z,15.32
2023-02-11T23:51:44.301Z,16.73
2023-02-11T23:54:49.337Z,14.68
2023-02-11T23:57:52.627Z,10.98
